Time;durP1;ratioP1;P1;durP2;ratioP2;P2;SDS_P1;SDS_P2;PMS_P1;PMS_P2;Temp;Humidity;BMP_temperature;BMP_pressure;BME280_temperature;BME280_humidity;BME280_pressure;Samples;Min_cycle;Max_cycle;Signal;HPM_P1;HPM_P2
2023/03/15 00:00:44;;;;;;;;;;;;;;;;;;4997428;28;19924;-77
2023/03/15 00:03:09;;;;;;;;;;;;;;;;;;4996171;28;19957;-77
2023/03/15 00:05:34;;;;;;;;;;;;;;;;;;4999126;28;19918;-79
2023/03/15 00:08:00;;;;;;;;;;;;;;;;;;4998899;28;20076;-78
2023/03/15 00:10:26;;;;;;;;;;;;;;;;;;4998489;28;19917;-78
2023/03/15 00:12:51;;;;;;;;;;;;;;;;;;4998461;28;19918;-79
2023/03/15 00:15:16;;;;;;;;;;;;;;;;;;4998017;28;19981;-79
2023/03/15 00:17:41;;;;;;;;;;;;;;;;;;4998718;28;20277;-78
2023/03/15 00:20:07;;;;;;;;;;;;;;;;;;4996893;28;19917;-78
2023/03/15 00:22:32;;;;;;;;;;;;;;;;;;4997543;28;19914;-78
2023/03/15 00:24:57;;;;;;;;;;;;;;;;;;4998328;28;19964;-79
2023/03/15 00:27:23;;;;;;;;;;;;;;;;;;4999363;28;19948;-79
2023/03/15 00:29:48;;;;;;;;;;;;;;;;;;4998827;28;19909;-79
2023/03/15 00:32:13;;;;;;;;;;;;;;;;;;4998545;28;19909;-79
2023/03/15 00:34:38;;;;;;;;;;;;;;;;;;4997803;28;20292;-79
2023/03/15 00:37:04;;;;;;;;;;;;;;;;;;4998083;28;19985;-78
2023/03/15 00:39:29;;;;;;;;;;;;;;;;;;4998139;28;19993;-79
2023/03/15 00:41:55;;;;;;;;;;;;;;;;;;4996964;28;19917;-78
2023/03/15 00:44:21;;;;;;;;;;;;;;;;;;4998249;28;19922;-79
2023/03/15 00:46:46;;;;;;;;;;;;;;;;;;4999824;28;19909;-78
2023/03/15 00:49:11;;;;;;;;;;;;;;;;;;5001739;28;19932;-78
2023/03/15 00:51:37;;;;;;;;;;;;;;;;;;5000820;28;19910;-78
2023/03/15 00:54:02;;;;;;;;;;;;;;;;;;5000940;28;20258;-77
2023/03/15 00:56:28;;;;;;;;;;;;;;;;;;5000316;28;19910;-79
2023/03/15 00:58:54;;;;;;;;;;;;;;;;;;5001234;28;19916;-78
2023/03/15 01:01:23;;;;;;;;;;;;;;;;;;5000590;28;20293;-78
2023/03/15 01:03:49;;;;;;;;;;;;;;;;;;5001091;28;19959;-78
2023/03/15 01:06:22;;;;;;;;;;;;;;;;;;4998677;28;19918;-78
2023/03/15 01:08:47;;;;;;;;;;;;;;;;;;4998771;28;19917;-78
2023/03/15 01:11:16;;;;;;;;;;;;;;;;;;5000486;28;19909;-78
2023/03/15 01:13:42;;;;;;;;;;;;;;;;;;4998969;28;19909;-78
2023/03/15 01:16:08;;;;;;;;;;;;;;;;;;5000568;28;19977;-78
2023/03/15 01:18:33;;;;;;;;;;;;;;;;;;4998039;28;19910;-78
2023/03/15 01:20:59;;;;;;;;;;;;;;;;;;4998925;28;19960;-78
2023/03/15 01:23:24;;;;;;;;;;;;;;;;;;4998936;28;20396;-78
2023/03/15 01:25:49;;;;;;;;;;;;;;;;;;4997019;28;20437;-77
2023/03/15 01:28:15;;;;;;;;;;;;;;;;;;4997838;28;19910;-78
2023/03/15 01:30:47;;;;;;;;;;;;;;;;;;4999314;28;19909;-78
2023/03/15 01:33:12;;;;;;;;;;;;;;;;;;5000338;28;19909;-79
2023/03/15 01:35:37;;;;;;;;;;;;;;;;;;4999770;28;19997;-79
2023/03/15 01:38:02;;;;;;;;;;;;;;;;;;5000989;28;19910;-78
2023/03/15 01:40:27;;;;;;;;;;;;;;;;;;5000620;28;19976;-78
2023/03/15 01:43:11;;;;;;;;;;;;;;;;;;5000927;28;19910;-79
2023/03/15 01:45:55;;;;;;;;;;;;;;;;;;5000208;28;20373;-79
2023/03/15 01:48:21;;;;;;;;;;;;;;;;;;5001381;28;20017;-79
2023/03/15 01:50:47;;;;;;;;;;;;;;;;;;5001166;28;19932;-79
2023/03/15 01:53:12;;;;;;;;;;;;;;;;;;5001356;28;19910;-79
2023/03/15 01:55:38;;;;;;;;;;;;;;;;;;5001170;28;19910;-79
2023/03/15 01:58:06;;;;;;;;;;;;;;;;;;5000278;28;19933;-78
2023/03/15 02:00:32;;;;;;;;;;;;;;;;;;4998849;28;19916;-79
2023/03/15 02:03:00;;;;;;;;;;;;;;;;;;5001088;28;19993;-78
2023/03/15 02:05:31;;;;;;;;;;;;;;;;;;4999089;28;20016;-78
2023/03/15 02:07:56;;;;;;;;;;;;;;;;;;4998984;28;20305;-79
2023/03/15 02:10:36;;;;;;;;;;;;;;;;;;4998881;28;19916;-78
2023/03/15 02:13:01;;;;;;;;;;;;;;;;;;4998212;28;20340;-78
2023/03/15 02:15:26;;;;;;;;;;;;;;;;;;4997979;28;19910;-79
2023/03/15 02:17:52;;;;;;;;;;;;;;;;;;4999925;28;19980;-79
2023/03/15 02:20:26;;;;;;;;;;;;;;;;;;5000825;28;19910;-79
2023/03/15 02:22:59;;;;;;;;;;;;;;;;;;4999953;28;19964;-79
2023/03/15 02:25:33;;;;;;;;;;;;;;;;;;4998651;28;19913;-79
2023/03/15 02:27:58;;;;;;;;;;;;;;;;;;4999985;28;19944;-79
2023/03/15 02:30:23;;;;;;;;;;;;;;;;;;4999369;28;20365;-78
2023/03/15 02:32:48;;;;;;;;;;;;;;;;;;4999682;28;20285;-78
2023/03/15 02:35:21;;;;;;;;;;;;;;;;;;4997669;28;20015;-78
2023/03/15 02:37:46;;;;;;;;;;;;;;;;;;4999722;28;19917;-79
2023/03/15 02:40:16;;;;;;;;;;;;;;;;;;5001466;28;19910;-79
2023/03/15 02:42:42;;;;;;;;;;;;;;;;;;4998887;28;19956;-78
2023/03/15 02:45:07;;;;;;;;;;;;;;;;;;4999971;28;19964;-79
2023/03/15 02:47:32;;;;;;;;;;;;;;;;;;4999618;28;19916;-79
2023/03/15 02:49:57;;;;;;;;;;;;;;;;;;4999282;28;20284;-79
2023/03/15 02:52:23;;;;;;;;;;;;;;;;;;4997710;28;19913;-79
2023/03/15 02:54:48;;;;;;;;;;;;;;;;;;4997305;28;19933;-78
2023/03/15 02:57:14;;;;;;;;;;;;;;;;;;4997730;28;19920;-78
2023/03/15 02:59:41;;;;;;;;;;;;;;;;;;4997751;28;19910;-79
2023/03/15 03:02:07;;;;;;;;;;;;;;;;;;4997677;28;19916;-78
2023/03/15 03:04:33;;;;;;;;;;;;;;;;;;4997622;28;19920;-78
2023/03/15 03:06:58;;;;;;;;;;;;;;;;;;4997688;28;19910;-77
2023/03/15 03:09:23;;;;;;;;;;;;;;;;;;4995491;28;19913;-77
2023/03/15 03:11:49;;;;;;;;;;;;;;;;;;4996853;28;19910;-79
2023/03/15 03:14:14;;;;;;;;;;;;;;;;;;4998051;28;20012;-78
2023/03/15 03:16:40;;;;;;;;;;;;;;;;;;4996679;28;20365;-78
2023/03/15 03:19:05;;;;;;;;;;;;;;;;;;4997956;28;19936;-78
2023/03/15 03:21:30;;;;;;;;;;;;;;;;;;4997896;28;19949;-78
2023/03/15 03:23:55;;;;;;;;;;;;;;;;;;4998625;28;19910;-79
2023/03/15 03:26:21;;;;;;;;;;;;;;;;;;4998324;28;19910;-79
2023/03/15 03:28:46;;;;;;;;;;;;;;;;;;4998801;28;19913;-78
2023/03/15 03:31:18;;;;;;;;;;;;;;;;;;4997494;28;20355;-78
2023/03/15 03:33:44;;;;;;;;;;;;;;;;;;4997574;28;19910;-79
2023/03/15 03:36:11;;;;;;;;;;;;;;;;;;4997724;28;19969;-78
2023/03/15 03:38:37;;;;;;;;;;;;;;;;;;4996457;28;19952;-79
2023/03/15 03:41:02;;;;;;;;;;;;;;;;;;4998029;28;19910;-79
2023/03/15 03:43:27;;;;;;;;;;;;;;;;;;4997962;28;20371;-79
2023/03/15 03:45:53;;;;;;;;;;;;;;;;;;4997296;28;19913;-78
2023/03/15 03:48:18;;;;;;;;;;;;;;;;;;4997998;28;20004;-78
2023/03/15 03:50:43;;;;;;;;;;;;;;;;;;4997515;28;19910;-78
2023/03/15 03:53:08;;;;;;;;;;;;;;;;;;4998437;28;19960;-78
2023/03/15 03:55:33;;;;;;;;;;;;;;;;;;4996852;28;19910;-78
2023/03/15 03:57:59;;;;;;;;;;;;;;;;;;4997238;28;19917;-78
2023/03/15 04:00:24;;;;;;;;;;;;;;;;;;4998324;28;19957;-78
2023/03/15 04:02:52;;;;;;;;;;;;;;;;;;4997638;28;19910;-78
2023/03/15 04:05:18;;;;;;;;;;;;;;;;;;4996544;28;20373;-76
2023/03/15 04:07:43;;;;;;;;;;;;;;;;;;4996944;28;19936;-77
2023/03/15 04:10:08;;;;;;;;;;;;;;;;;;4996320;28;19910;-78
2023/03/15 04:12:33;;;;;;;;;;;;;;;;;;4996043;28;19948;-78
2023/03/15 04:14:59;;;;;;;;;;;;;;;;;;4998425;28;19917;-79
2023/03/15 04:17:24;;;;;;;;;;;;;;;;;;4997675;28;19953;-79
2023/03/15 04:19:49;;;;;;;;;;;;;;;;;;4999415;28;19917;-79
2023/03/15 04:22:14;;;;;;;;;;;;;;;;;;5001104;28;19918;-79
2023/03/15 04:24:40;;;;;;;;;;;;;;;;;;5003741;28;20008;-81
2023/03/15 04:27:05;;;;;;;;;;;;;;;;;;5003622;28;19914;-79
2023/03/15 04:29:30;;;;;;;;;;;;;;;;;;5002847;28;19910;-79
2023/03/15 04:32:00;;;;;;;;;;;;;;;;;;5000306;28;19910;-78
2023/03/15 04:34:27;;;;;;;;;;;;;;;;;;4999641;28;19914;-78
2023/03/15 04:36:53;;;;;;;;;;;;;;;;;;5000412;28;20419;-77
2023/03/15 04:39:18;;;;;;;;;;;;;;;;;;4998862;28;19916;-78
2023/03/15 04:41:43;;;;;;;;;;;;;;;;;;5002042;28;19909;-78
2023/03/15 04:44:09;;;;;;;;;;;;;;;;;;5002217;28;19910;-79
2023/03/15 04:46:34;;;;;;;;;;;;;;;;;;5002066;28;20399;-78
2023/03/15 04:48:59;;;;;;;;;;;;;;;;;;5000153;28;19910;-78
2023/03/15 04:51:33;;;;;;;;;;;;;;;;;;5002712;28;19913;-77
2023/03/15 04:53:59;;;;;;;;;;;;;;;;;;5003423;28;19945;-78
2023/03/15 04:56:24;;;;;;;;;;;;;;;;;;5005219;28;20321;-79
2023/03/15 04:58:50;;;;;;;;;;;;;;;;;;5000970;28;19916;-78
2023/03/15 05:01:15;;;;;;;;;;;;;;;;;;4999232;28;19987;-78
2023/03/15 05:03:40;;;;;;;;;;;;;;;;;;5000459;28;19909;-78
2023/03/15 05:06:06;;;;;;;;;;;;;;;;;;5000942;28;19914;-78
2023/03/15 05:08:33;;;;;;;;;;;;;;;;;;5002210;28;19910;-79
2023/03/15 05:10:58;;;;;;;;;;;;;;;;;;5001880;28;19909;-79
2023/03/15 05:13:23;;;;;;;;;;;;;;;;;;5001815;28;20415;-78
2023/03/15 05:15:48;;;;;;;;;;;;;;;;;;5000352;28;19910;-78
2023/03/15 05:18:14;;;;;;;;;;;;;;;;;;5001721;28;19992;-79
2023/03/15 05:20:39;;;;;;;;;;;;;;;;;;5001893;28;19941;-79
2023/03/15 05:23:04;;;;;;;;;;;;;;;;;;4999849;28;19984;-78
2023/03/15 05:25:29;;;;;;;;;;;;;;;;;;4998945;28;19914;-78
2023/03/15 05:27:55;;;;;;;;;;;;;;;;;;4999456;28;19913;-78
2023/03/15 05:30:20;;;;;;;;;;;;;;;;;;4999200;28;20507;-79
2023/03/15 05:32:45;;;;;;;;;;;;;;;;;;4998676;28;20396;-78
2023/03/15 05:35:11;;;;;;;;;;;;;;;;;;4999984;28;20045;-78
2023/03/15 05:37:36;;;;;;;;;;;;;;;;;;4998957;28;19918;-77
2023/03/15 05:40:03;;;;;;;;;;;;;;;;;;4999515;28;20277;-81
2023/03/15 05:42:29;;;;;;;;;;;;;;;;;;4999973;28;19910;-79
2023/03/15 05:44:55;;;;;;;;;;;;;;;;;;5000604;28;19984;-79
2023/03/15 05:47:20;;;;;;;;;;;;;;;;;;5001110;28;20365;-79
2023/03/15 05:49:46;;;;;;;;;;;;;;;;;;4999905;28;19978;-79
2023/03/15 05:52:11;;;;;;;;;;;;;;;;;;5000835;28;19960;-79
2023/03/15 05:54:36;;;;;;;;;;;;;;;;;;4999022;28;19910;-79
2023/03/15 05:57:01;;;;;;;;;;;;;;;;;;4999973;28;19909;-78
2023/03/15 05:59:26;;;;;;;;;;;;;;;;;;4998225;28;19909;-78
2023/03/15 06:01:52;;;;;;;;;;;;;;;;;;4998097;28;20369;-78
2023/03/15 06:04:17;;;;;;;;;;;;;;;;;;4996866;28;19910;-77
2023/03/15 06:06:42;;;;;;;;;;;;;;;;;;4997505;28;19916;-78
2023/03/15 06:09:07;;;;;;;;;;;;;;;;;;4999343;28;19916;-77
2023/03/15 06:11:32;;;;;;;;;;;;;;;;;;4998020;28;20292;-79
2023/03/15 06:13:58;;;;;;;;;;;;;;;;;;4997522;28;19956;-78
2023/03/15 06:16:23;;;;;;;;;;;;;;;;;;4998973;28;20266;-79
2023/03/15 06:18:48;;;;;;;;;;;;;;;;;;5000369;28;20377;-78
2023/03/15 06:21:13;;;;;;;;;;;;;;;;;;5000201;28;19920;-79
2023/03/15 06:23:38;;;;;;;;;;;;;;;;;;4998043;28;19909;-78
2023/03/15 06:26:03;;;;;;;;;;;;;;;;;;4997269;28;19914;-78
2023/03/15 06:28:29;;;;;;;;;;;;;;;;;;4999209;28;19937;-78
2023/03/15 06:30:54;;;;;;;;;;;;;;;;;;5000423;28;20322;-79
2023/03/15 06:33:20;;;;;;;;;;;;;;;;;;5001316;28;19932;-78
2023/03/15 06:35:45;;;;;;;;;;;;;;;;;;5000320;28;19914;-78
2023/03/15 06:38:12;;;;;;;;;;;;;;;;;;5000900;28;19987;-78
2023/03/15 06:40:37;;;;;;;;;;;;;;;;;;5000907;28;19952;-77
2023/03/15 06:43:05;;;;;;;;;;;;;;;;;;5001254;28;19909;-79
2023/03/15 06:45:30;;;;;;;;;;;;;;;;;;5000580;28;19913;-78
2023/03/15 06:47:55;;;;;;;;;;;;;;;;;;4997190;28;20299;-78
2023/03/15 06:50:21;;;;;;;;;;;;;;;;;;4995919;28;19916;-77
2023/03/15 06:52:46;;;;;;;;;;;;;;;;;;4996954;28;20014;-77
2023/03/15 06:55:16;;;;;;;;;;;;;;;;;;4997098;28;19916;-79
2023/03/15 06:57:41;;;;;;;;;;;;;;;;;;4997205;28;20368;-77
2023/03/15 07:00:10;;;;;;;;;;;;;;;;;;4998244;28;19909;-78
2023/03/15 07:02:36;;;;;;;;;;;;;;;;;;4996963;28;20408;-78
2023/03/15 07:05:01;;;;;;;;;;;;;;;;;;4997721;28;20014;-78
2023/03/15 07:07:26;;;;;;;;;;;;;;;;;;4997128;28;19949;-79
2023/03/15 07:09:52;;;;;;;;;;;;;;;;;;5000788;28;19910;-79
2023/03/15 07:12:17;;;;;;;;;;;;;;;;;;5000492;28;20365;-80
2023/03/15 07:14:42;;;;;;;;;;;;;;;;;;4999834;28;19960;-80
2023/03/15 07:17:07;;;;;;;;;;;;;;;;;;4998422;28;20361;-79
2023/03/15 07:19:32;;;;;;;;;;;;;;;;;;4999940;28;20395;-79
2023/03/15 07:21:57;;;;;;;;;;;;;;;;;;4998943;28;20337;-78
2023/03/15 07:24:23;;;;;;;;;;;;;;;;;;4998355;28;19918;-77
2023/03/15 07:26:49;;;;;;;;;;;;;;;;;;4999479;28;20266;-80
2023/03/15 07:29:14;;;;;;;;;;;;;;;;;;4998313;28;19910;-79
2023/03/15 07:31:39;;;;;;;;;;;;;;;;;;4999255;28;19917;-79
2023/03/15 07:34:04;;;;;;;;;;;;;;;;;;4997519;28;19914;-79
2023/03/15 07:36:31;;;;;;;;;;;;;;;;;;4997015;28;19948;-77
2023/03/15 07:38:56;;;;;;;;;;;;;;;;;;4996997;28;19932;-77
2023/03/15 07:41:21;;;;;;;;;;;;;;;;;;4996926;28;19909;-78
2023/03/15 07:43:46;;;;;;;;;;;;;;;;;;4997581;28;19916;-78
2023/03/15 07:46:11;;;;;;;;;;;;;;;;;;4996846;28;19937;-78
2023/03/15 07:48:37;;;;;;;;;;;;;;;;;;4996939;28;19910;-78
2023/03/15 07:51:02;;;;;;;;;;;;;;;;;;4997221;28;19916;-79
2023/03/15 07:53:27;;;;;;;;;;;;;;;;;;4996578;28;19909;-78
2023/03/15 07:55:53;;;;;;;;;;;;;;;;;;4997416;28;20361;-78
2023/03/15 07:58:18;;;;;;;;;;;;;;;;;;5006093;28;19910;-79
2023/03/15 08:00:43;;;;;;;;;;;;;;;;;;5005594;28;19921;-79
2023/03/15 08:03:08;;;;;;;;;;;;;;;;;;5005297;28;19933;-78
2023/03/15 08:05:34;;;;;;;;;;;;;;;;;;5005728;28;19914;-79
2023/03/15 08:07:59;;;;;;;;;;;;;;;;;;5005878;28;19916;-79
2023/03/15 08:10:25;;;;;;;;;;;;;;;;;;5004620;28;20369;-79
2023/03/15 08:12:50;;;;;;;;;;;;;;;;;;5004070;28;19910;-78
2023/03/15 08:15:15;;;;;;;;;;;;;;;;;;5004037;28;19909;-77
2023/03/15 08:17:41;;;;;;;;;;;;;;;;;;5004233;28;20372;-78
2023/03/15 08:20:10;;;;;;;;;;;;;;;;;;5004246;28;20007;-79
2023/03/15 08:22:35;;;;;;;;;;;;;;;;;;5003949;28;20388;-77
2023/03/15 08:25:03;;;;;;;;;;;;;;;;;;5003913;28;19921;-78
2023/03/15 08:27:28;;;;;;;;;;;;;;;;;;5003619;28;19909;-78
2023/03/15 08:29:53;;;;;;;;;;;;;;;;;;5002632;28;19932;-77
2023/03/15 08:32:18;;;;;;;;;;;;;;;;;;5001412;28;19914;-77
2023/03/15 08:34:44;;;;;;;;;;;;;;;;;;5003249;28;20024;-78
2023/03/15 08:37:10;;;;;;;;;;;;;;;;;;5002902;28;19920;-78
2023/03/15 08:39:36;;;;;;;;;;;;;;;;;;5003629;28;19914;-78
2023/03/15 08:42:01;;;;;;;;;;;;;;;;;;5003485;28;20400;-78
2023/03/15 08:44:26;;;;;;;;;;;;;;;;;;5003683;28;19918;-78
2023/03/15 08:46:51;;;;;;;;;;;;;;;;;;5000780;28;19952;-77
2023/03/15 08:49:16;;;;;;;;;;;;;;;;;;5002339;28;19917;-77
2023/03/15 08:51:41;;;;;;;;;;;;;;;;;;4999225;28;20379;-77
2023/03/15 08:54:06;;;;;;;;;;;;;;;;;;5000156;28;19909;-76
2023/03/15 08:56:32;;;;;;;;;;;;;;;;;;5001295;28;20404;-78
2023/03/15 08:58:57;;;;;;;;;;;;;;;;;;5001706;28;19916;-77
2023/03/15 09:01:22;;;;;;;;;;;;;;;;;;5001454;28;19973;-79
2023/03/15 09:03:49;;;;;;;;;;;;;;;;;;5001165;28;20432;-76
2023/03/15 09:06:14;;;;;;;;;;;;;;;;;;5000409;28;19914;-74
2023/03/15 09:08:40;;;;;;;;;;;;;;;;;;4997617;28;19972;-77
2023/03/15 09:11:06;;;;;;;;;;;;;;;;;;4997759;28;19916;-76
2023/03/15 09:13:31;;;;;;;;;;;;;;;;;;4998832;28;19972;-74
2023/03/15 09:15:56;;;;;;;;;;;;;;;;;;5000704;28;19917;-75
2023/03/15 09:18:22;;;;;;;;;;;;;;;;;;4999804;28;20068;-74
2023/03/15 09:20:47;;;;;;;;;;;;;;;;;;4999161;28;20015;-76
2023/03/15 09:23:13;;;;;;;;;;;;;;;;;;4998085;28;19910;-77
2023/03/15 09:25:38;;;;;;;;;;;;;;;;;;4998053;28;19921;-76
2023/03/15 09:28:07;;;;;;;;;;;;;;;;;;4996340;28;19913;-76
2023/03/15 09:30:33;;;;;;;;;;;;;;;;;;4996324;28;20373;-74
2023/03/15 09:32:58;;;;;;;;;;;;;;;;;;4996882;28;20013;-74
2023/03/15 09:35:23;;;;;;;;;;;;;;;;;;4995770;28;19910;-74
2023/03/15 09:37:49;;;;;;;;;;;;;;;;;;4996823;28;19909;-74
2023/03/15 09:40:44;;;;;;;;;;;;;;;;;;4997183;28;19909;-74
2023/03/15 09:43:33;;;;;;;;;;;;;;;;;;4984482;28;19910;-75
2023/03/15 09:46:22;;;;;;;;;;;;;;;;;;4995742;28;20365;-74
2023/03/15 09:48:47;;;;;;;;;;;;;;;;;;4997092;28;19909;-75
2023/03/15 09:51:34;;;;;;;;;;;;;;;;;;4995533;28;20008;-75
2023/03/15 09:54:02;;;;;;;;;;;;;;;;;;4986645;28;19910;-76
2023/03/15 09:56:31;;;;;;;;;;;;;;;;;;4994989;28;20399;-74
2023/03/15 09:59:00;;;;;;;;;;;;;;;;;;4996976;28;19909;-74
2023/03/15 10:01:34;;;;;;;;;;;;;;;;;;4996506;28;19913;-75
2023/03/15 10:04:03;;;;;;;;;;;;;;;;;;4996923;28;19932;-75
2023/03/15 10:06:33;;;;;;;;;;;;;;;;;;4995496;28;19920;-73
2023/03/15 10:08:59;;;;;;;;;;;;;;;;;;4994254;28;19917;-73
2023/03/15 10:11:30;;;;;;;;;;;;;;;;;;4994263;28;19914;-74
2023/03/15 10:13:58;;;;;;;;;;;;;;;;;;4995795;28;19920;-74
2023/03/15 10:16:39;;;;;;;;;;;;;;;;;;4995416;28;19909;-73
2023/03/15 10:19:11;;;;;;;;;;;;;;;;;;4994875;28;19960;-72
2023/03/15 10:21:40;;;;;;;;;;;;;;;;;;4995386;28;19917;-73
2023/03/15 10:24:09;;;;;;;;;;;;;;;;;;4995294;28;20435;-73
2023/03/15 10:26:35;;;;;;;;;;;;;;;;;;4995814;28;19914;-73
2023/03/15 10:29:02;;;;;;;;;;;;;;;;;;4995874;28;19910;-73
2023/03/15 10:31:32;;;;;;;;;;;;;;;;;;4995081;28;19945;-74
2023/03/15 10:33:58;;;;;;;;;;;;;;;;;;4995549;28;19949;-73
2023/03/15 10:36:24;;;;;;;;;;;;;;;;;;4995212;28;19960;-72
2023/03/15 10:38:49;;;;;;;;;;;;;;;;;;4993804;28;19910;-72
2023/03/15 10:41:34;;;;;;;;;;;;;;;;;;4995914;28;19921;-72
2023/03/15 10:44:00;;;;;;;;;;;;;;;;;;4996177;28;19977;-73
2023/03/15 10:46:26;;;;;;;;;;;;;;;;;;4995795;28;20373;-74
2023/03/15 10:48:55;;;;;;;;;;;;;;;;;;4994857;28;19956;-75
2023/03/15 10:51:30;;;;;;;;;;;;;;;;;;4995095;28;20004;-74
2023/03/15 10:54:01;;;;;;;;;;;;;;;;;;4994899;28;19913;-73
2023/03/15 10:56:28;;;;;;;;;;;;;;;;;;4994682;28;19909;-72
2023/03/15 10:58:54;;;;;;;;;;;;;;;;;;4994734;28;19909;-74
2023/03/15 11:01:24;;;;;;;;;;;;;;;;;;4994522;28;20395;-74
2023/03/15 11:04:08;;;;;;;;;;;;;;;;;;4994813;28;19917;-73
2023/03/15 11:06:40;;;;;;;;;;;;;;;;;;4994744;28;20473;-74
2023/03/15 11:09:13;;;;;;;;;;;;;;;;;;4994740;28;20335;-75
2023/03/15 11:11:49;;;;;;;;;;;;;;;;;;4993037;28;19917;-73
2023/03/15 11:14:16;;;;;;;;;;;;;;;;;;4994347;28;20416;-74
2023/03/15 11:16:45;;;;;;;;;;;;;;;;;;4994575;28;19917;-74
2023/03/15 11:19:13;;;;;;;;;;;;;;;;;;4993270;28;19909;-73
2023/03/15 11:21:39;;;;;;;;;;;;;;;;;;4994183;28;19913;-73
2023/03/15 11:24:05;;;;;;;;;;;;;;;;;;4994679;28;20293;-73
2023/03/15 11:26:33;;;;;;;;;;;;;;;;;;4994543;28;19921;-72
2023/03/15 11:29:13;;;;;;;;;;;;;;;;;;4994233;28;20293;-74
2023/03/15 11:31:38;;;;;;;;;;;;;;;;;;4992366;28;19916;-73
2023/03/15 11:34:06;;;;;;;;;;;;;;;;;;4994714;28;19914;-74
2023/03/15 11:36:35;;;;;;;;;;;;;;;;;;4992962;28;19914;-74
2023/03/15 11:39:03;;;;;;;;;;;;;;;;;;4992994;28;20427;-73
2023/03/15 11:41:33;;;;;;;;;;;;;;;;;;4993171;28;19909;-77
2023/03/15 11:44:17;;;;;;;;;;;;;;;;;;4994828;28;19932;-74
2023/03/15 11:46:49;;;;;;;;;;;;;;;;;;4994345;28;20009;-73
2023/03/15 11:49:27;;;;;;;;;;;;;;;;;;4994644;28;19910;-75
2023/03/15 11:51:54;;;;;;;;;;;;;;;;;;4993370;28;19914;-75
2023/03/15 11:54:20;;;;;;;;;;;;;;;;;;4994642;28;20332;-74
2023/03/15 11:56:48;;;;;;;;;;;;;;;;;;4994270;28;19917;-73
2023/03/15 11:59:15;;;;;;;;;;;;;;;;;;4994481;28;20377;-74
2023/03/15 12:01:51;;;;;;;;;;;;;;;;;;4994679;28;19933;-74
2023/03/15 12:04:31;;;;;;;;;;;;;;;;;;4994652;28;19922;-74
2023/03/15 12:06:57;;;;;;;;;;;;;;;;;;4994560;28;20012;-74
2023/03/15 12:09:32;;;;;;;;;;;;;;;;;;4993496;28;20369;-74
2023/03/15 12:11:58;;;;;;;;;;;;;;;;;;4993048;28;20432;-74
2023/03/15 12:14:26;;;;;;;;;;;;;;;;;;4994677;28;19910;-73
2023/03/15 12:16:56;;;;;;;;;;;;;;;;;;4996029;28;19961;-75
2023/03/15 12:19:23;;;;;;;;;;;;;;;;;;4993094;28;19909;-74
2023/03/15 12:21:57;;;;;;;;;;;;;;;;;;4994575;28;20384;-74
2023/03/15 12:24:28;;;;;;;;;;;;;;;;;;4993744;28;19910;-74
2023/03/15 12:27:13;;;;;;;;;;;;;;;;;;4995681;28;19956;-74
2023/03/15 12:29:40;;;;;;;;;;;;;;;;;;4996245;28;19920;-74
2023/03/15 12:32:10;;;;;;;;;;;;;;;;;;4996215;28;19936;-74
2023/03/15 12:34:41;;;;;;;;;;;;;;;;;;4995627;28;19910;-73
2023/03/15 12:37:08;;;;;;;;;;;;;;;;;;4995619;28;19960;-73
2023/03/15 12:39:38;;;;;;;;;;;;;;;;;;4995846;28;19909;-73
2023/03/15 12:42:03;;;;;;;;;;;;;;;;;;4998358;28;19909;-73
2023/03/15 12:44:31;;;;;;;;;;;;;;;;;;5001068;28;19928;-74
2023/03/15 12:47:00;;;;;;;;;;;;;;;;;;4999571;28;19909;-73
2023/03/15 12:49:25;;;;;;;;;;;;;;;;;;4997378;28;19913;-74
2023/03/15 12:52:01;;;;;;;;;;;;;;;;;;4996556;28;19917;-74
2023/03/15 12:54:31;;;;;;;;;;;;;;;;;;4997681;28;19955;-73
2023/03/15 12:56:57;;;;;;;;;;;;;;;;;;4997596;28;19909;-75
2023/03/15 12:59:42;;;;;;;;;;;;;;;;;;4998278;28;20004;-75
2023/03/15 13:02:19;;;;;;;;;;;;;;;;;;4998782;28;19955;-75
2023/03/15 13:04:48;;;;;;;;;;;;;;;;;;4997437;28;19914;-75
2023/03/15 13:07:22;;;;;;;;;;;;;;;;;;4997635;28;20396;-75
2023/03/15 13:09:53;;;;;;;;;;;;;;;;;;4998649;28;19910;-75
2023/03/15 13:12:41;;;;;;;;;;;;;;;;;;4998082;28;19937;-76
2023/03/15 13:15:10;;;;;;;;;;;;;;;;;;4998370;28;19920;-75
2023/03/15 13:17:47;;;;;;;;;;;;;;;;;;4996895;28;20340;-75
2023/03/15 13:20:18;;;;;;;;;;;;;;;;;;4998249;28;19917;-76
2023/03/15 13:22:53;;;;;;;;;;;;;;;;;;4996878;28;20015;-76
2023/03/15 13:25:21;;;;;;;;;;;;;;;;;;4998946;28;19914;-76
2023/03/15 13:27:54;;;;;;;;;;;;;;;;;;4997333;28;19932;-76
2023/03/15 13:30:31;;;;;;;;;;;;;;;;;;4997985;28;19937;-75
2023/03/15 13:33:09;;;;;;;;;;;;;;;;;;4997804;28;19914;-76
2023/03/15 13:35:42;;;;;;;;;;;;;;;;;;4997881;28;19910;-75
2023/03/15 13:38:21;;;;;;;;;;;;;;;;;;4998744;28;19941;-75
2023/03/15 13:40:47;;;;;;;;;;;;;;;;;;4998496;28;19910;-76
2023/03/15 13:43:12;;;;;;;;;;;;;;;;;;4998371;28;19909;-76
2023/03/15 13:45:40;;;;;;;;;;;;;;;;;;4997604;28;20428;-76
2023/03/15 13:48:05;;;;;;;;;;;;;;;;;;4997506;28;19914;-75
2023/03/15 13:50:31;;;;;;;;;;;;;;;;;;4997665;28;20364;-76
2023/03/15 13:52:57;;;;;;;;;;;;;;;;;;4996256;28;19913;-76
2023/03/15 13:55:23;;;;;;;;;;;;;;;;;;4998103;28;19928;-75
2023/03/15 13:57:52;;;;;;;;;;;;;;;;;;4998733;28;20268;-77
2023/03/15 14:00:17;;;;;;;;;;;;;;;;;;4997048;28;19917;-76
2023/03/15 14:02:43;;;;;;;;;;;;;;;;;;4997464;28;19910;-76
2023/03/15 14:05:26;;;;;;;;;;;;;;;;;;4996290;28;20356;-78
2023/03/15 14:08:14;;;;;;;;;;;;;;;;;;4998544;28;20368;-79
2023/03/15 14:10:39;;;;;;;;;;;;;;;;;;4998436;28;19910;-79
2023/03/15 14:13:25;;;;;;;;;;;;;;;;;;4997990;28;19960;-78
2023/03/15 14:15:55;;;;;;;;;;;;;;;;;;4996753;28;20008;-77
2023/03/15 14:18:22;;;;;;;;;;;;;;;;;;4998573;28;19960;-78
2023/03/15 14:21:06;;;;;;;;;;;;;;;;;;4996982;28;19910;-79
2023/03/15 14:23:34;;;;;;;;;;;;;;;;;;4998781;28;19910;-78
2023/03/15 14:26:05;;;;;;;;;;;;;;;;;;4996801;28;19921;-77
2023/03/15 14:28:31;;;;;;;;;;;;;;;;;;4998169;28;20351;-78
2023/03/15 14:30:57;;;;;;;;;;;;;;;;;;4997801;28;19916;-78
2023/03/15 14:33:32;;;;;;;;;;;;;;;;;;4998335;28;19910;-77
2023/03/15 14:36:02;;;;;;;;;;;;;;;;;;4997204;28;19914;-78
2023/03/15 14:38:37;;;;;;;;;;;;;;;;;;4997629;28;20000;-77
2023/03/15 14:41:18;;;;;;;;;;;;;;;;;;4996725;28;19979;-77
2023/03/15 14:43:43;;;;;;;;;;;;;;;;;;4996058;28;20004;-78
2023/03/15 14:46:08;;;;;;;;;;;;;;;;;;4997706;28;19958;-79
2023/03/15 14:48:33;;;;;;;;;;;;;;;;;;4998392;28;19917;-78
2023/03/15 14:50:59;;;;;;;;;;;;;;;;;;4998266;28;19910;-78
2023/03/15 14:53:25;;;;;;;;;;;;;;;;;;4998505;28;20011;-79
2023/03/15 14:55:50;;;;;;;;;;;;;;;;;;4996920;28;19909;-79
2023/03/15 14:58:17;;;;;;;;;;;;;;;;;;4998564;28;20431;-79
2023/03/15 15:00:43;;;;;;;;;;;;;;;;;;4998198;28;20361;-79
2023/03/15 15:03:27;;;;;;;;;;;;;;;;;;4998871;28;20285;-79
2023/03/15 15:05:52;;;;;;;;;;;;;;;;;;4997765;28;20347;-79
2023/03/15 15:08:18;;;;;;;;;;;;;;;;;;4996755;28;19909;-78
2023/03/15 15:10:45;;;;;;;;;;;;;;;;;;4997968;28;19910;-79
2023/03/15 15:13:14;;;;;;;;;;;;;;;;;;4997287;28;19956;-78
2023/03/15 15:15:39;;;;;;;;;;;;;;;;;;4997706;28;19910;-79
2023/03/15 15:18:04;;;;;;;;;;;;;;;;;;4996894;28;20340;-79
2023/03/15 15:20:30;;;;;;;;;;;;;;;;;;4996108;28;20083;-77
2023/03/15 15:22:56;;;;;;;;;;;;;;;;;;4997229;28;19925;-78
2023/03/15 15:25:23;;;;;;;;;;;;;;;;;;4996796;28;20000;-79
2023/03/15 15:27:49;;;;;;;;;;;;;;;;;;4996938;28;20393;-80
2023/03/15 15:30:19;;;;;;;;;;;;;;;;;;4997532;28;19916;-80
2023/03/15 15:32:44;;;;;;;;;;;;;;;;;;4995285;28;20004;-80
2023/03/15 15:35:12;;;;;;;;;;;;;;;;;;4995298;28;19964;-79
2023/03/15 15:37:37;;;;;;;;;;;;;;;;;;4997079;28;19909;-79
2023/03/15 15:40:04;;;;;;;;;;;;;;;;;;4997624;28;19917;-79
2023/03/15 15:42:29;;;;;;;;;;;;;;;;;;4996808;28;19910;-79
2023/03/15 15:44:54;;;;;;;;;;;;;;;;;;4997539;28;19921;-79
2023/03/15 15:47:19;;;;;;;;;;;;;;;;;;4998217;28;19920;-77
2023/03/15 15:49:44;;;;;;;;;;;;;;;;;;4996385;28;19917;-79
2023/03/15 15:52:10;;;;;;;;;;;;;;;;;;4997168;28;19952;-78
2023/03/15 15:54:36;;;;;;;;;;;;;;;;;;4997517;28;19918;-79
2023/03/15 15:57:01;;;;;;;;;;;;;;;;;;4998266;28;19910;-79
2023/03/15 15:59:26;;;;;;;;;;;;;;;;;;4997464;28;20396;-79
2023/03/15 16:01:52;;;;;;;;;;;;;;;;;;4997626;28;20432;-79
2023/03/15 16:04:17;;;;;;;;;;;;;;;;;;4997478;28;20277;-79
2023/03/15 16:06:47;;;;;;;;;;;;;;;;;;4997837;28;19913;-79
2023/03/15 16:09:12;;;;;;;;;;;;;;;;;;4995107;28;19909;-78
2023/03/15 16:11:38;;;;;;;;;;;;;;;;;;4997268;28;20383;-79
2023/03/15 16:14:03;;;;;;;;;;;;;;;;;;4997768;28;19910;-80
2023/03/15 16:16:29;;;;;;;;;;;;;;;;;;4997537;28;20369;-79
2023/03/15 16:18:54;;;;;;;;;;;;;;;;;;5000716;28;19917;-78
2023/03/15 16:21:25;;;;;;;;;;;;;;;;;;5000776;28;19914;-79
2023/03/15 16:23:54;;;;;;;;;;;;;;;;;;5001493;28;19910;-78
2023/03/15 16:26:19;;;;;;;;;;;;;;;;;;5000988;28;19914;-78
2023/03/15 16:28:46;;;;;;;;;;;;;;;;;;4999413;28;19913;-78
2023/03/15 16:31:11;;;;;;;;;;;;;;;;;;5000917;28;19917;-78
2023/03/15 16:33:37;;;;;;;;;;;;;;;;;;5000061;28;19909;-77
2023/03/15 16:36:02;;;;;;;;;;;;;;;;;;5000114;28;19979;-78
2023/03/15 16:38:29;;;;;;;;;;;;;;;;;;5000847;28;19953;-79
2023/03/15 16:40:54;;;;;;;;;;;;;;;;;;5001535;28;19917;-79
2023/03/15 16:43:19;;;;;;;;;;;;;;;;;;5000223;28;19910;-79
2023/03/15 16:45:45;;;;;;;;;;;;;;;;;;5000742;28;20401;-78
2023/03/15 16:48:10;;;;;;;;;;;;;;;;;;5000229;28;19910;-79